sensor_id;sensor_type;location;lat;lon;timestamp;temperature;humidity
79698;SHT31;69168;42.708;23.286;2023-11-21T00:00:42;5.48;70.60
79698;SHT31;69168;42.708;23.286;2023-11-21T00:03:14;5.51;70.52
79698;SHT31;69168;42.708;23.286;2023-11-21T00:05:41;5.58;70.76
79698;SHT31;69168;42.708;23.286;2023-11-21T00:08:09;5.60;70.80
79698;SHT31;69168;42.708;23.286;2023-11-21T00:10:36;5.37;71.26
79698;SHT31;69168;42.708;23.286;2023-11-21T00:13:04;5.44;71.14
79698;SHT31;69168;42.708;23.286;2023-11-21T00:15:29;5.30;71.51
79698;SHT31;69168;42.708;23.286;2023-11-21T00:17:55;5.30;71.61
79698;SHT31;69168;42.708;23.286;2023-11-21T00:20:20;5.37;71.42
79698;SHT31;69168;42.708;23.286;2023-11-21T00:22:46;5.47;71.22
79698;SHT31;69168;42.708;23.286;2023-11-21T00:25:12;5.35;71.10
79698;SHT31;69168;42.708;23.286;2023-11-21T00:27:43;5.40;71.22
79698;SHT31;69168;42.708;23.286;2023-11-21T00:30:12;5.39;71.15
79698;SHT31;69168;42.708;23.286;2023-11-21T00:32:38;5.39;71.10
79698;SHT31;69168;42.708;23.286;2023-11-21T00:35:06;5.44;70.84
79698;SHT31;69168;42.708;23.286;2023-11-21T00:37:35;5.42;70.72
79698;SHT31;69168;42.708;23.286;2023-11-21T00:40:01;5.35;71.31
79698;SHT31;69168;42.708;23.286;2023-11-21T00:42:30;5.35;71.07
79698;SHT31;69168;42.708;23.286;2023-11-21T00:44:57;5.30;71.29
79698;SHT31;69168;42.708;23.286;2023-11-21T00:47:22;5.29;71.22
79698;SHT31;69168;42.708;23.286;2023-11-21T00:49:48;5.12;71.72
79698;SHT31;69168;42.708;23.286;2023-11-21T00:52:17;5.07;71.88
79698;SHT31;69168;42.708;23.286;2023-11-21T00:54:42;4.99;72.16
79698;SHT31;69168;42.708;23.286;2023-11-21T00:57:08;5.04;72.11
79698;SHT31;69168;42.708;23.286;2023-11-21T00:59:34;5.09;72.05
79698;SHT31;69168;42.708;23.286;2023-11-21T01:02:00;5.09;71.95
79698;SHT31;69168;42.708;23.286;2023-11-21T01:04:26;5.09;71.87
79698;SHT31;69168;42.708;23.286;2023-11-21T01:06:52;5.02;71.97
79698;SHT31;69168;42.708;23.286;2023-11-21T01:09:17;5.05;71.59
79698;SHT31;69168;42.708;23.286;2023-11-21T01:11:46;5.08;71.67
79698;SHT31;69168;42.708;23.286;2023-11-21T01:14:15;5.09;71.60
79698;SHT31;69168;42.708;23.286;2023-11-21T01:16:40;4.98;71.74
79698;SHT31;69168;42.708;23.286;2023-11-21T01:19:06;5.01;71.83
79698;SHT31;69168;42.708;23.286;2023-11-21T01:21:31;5.12;71.69
79698;SHT31;69168;42.708;23.286;2023-11-21T01:23:59;5.05;71.50
79698;SHT31;69168;42.708;23.286;2023-11-21T01:26:25;5.07;71.76
79698;SHT31;69168;42.708;23.286;2023-11-21T01:28:50;5.01;73.16
79698;SHT31;69168;42.708;23.286;2023-11-21T01:31:19;4.96;73.52
79698;SHT31;69168;42.708;23.286;2023-11-21T01:33:45;5.05;73.78
79698;SHT31;69168;42.708;23.286;2023-11-21T01:36:11;5.08;73.00
79698;SHT31;69168;42.708;23.286;2023-11-21T01:38:36;5.08;72.05
79698;SHT31;69168;42.708;23.286;2023-11-21T01:41:02;4.82;71.96
79698;SHT31;69168;42.708;23.286;2023-11-21T01:43:27;4.84;72.00
79698;SHT31;69168;42.708;23.286;2023-11-21T01:45:54;4.73;72.29
79698;SHT31;69168;42.708;23.286;2023-11-21T01:48:22;4.61;72.79
79698;SHT31;69168;42.708;23.286;2023-11-21T01:50:51;4.63;72.37
79698;SHT31;69168;42.708;23.286;2023-11-21T01:53:17;4.67;72.31
79698;SHT31;69168;42.708;23.286;2023-11-21T01:55:45;4.67;72.10
79698;SHT31;69168;42.708;23.286;2023-11-21T01:58:10;4.70;71.94
79698;SHT31;69168;42.708;23.286;2023-11-21T02:00:37;4.67;71.90
79698;SHT31;69168;42.708;23.286;2023-11-21T02:03:06;4.65;72.09
79698;SHT31;69168;42.708;23.286;2023-11-21T02:05:32;4.60;72.23
79698;SHT31;69168;42.708;23.286;2023-11-21T02:07:57;4.53;72.19
79698;SHT31;69168;42.708;23.286;2023-11-21T02:10:26;4.56;72.09
79698;SHT31;69168;42.708;23.286;2023-11-21T02:12:51;4.61;71.69
79698;SHT31;69168;42.708;23.286;2023-11-21T02:15:17;4.56;72.02
79698;SHT31;69168;42.708;23.286;2023-11-21T02:17:47;4.46;72.47
79698;SHT31;69168;42.708;23.286;2023-11-21T02:20:13;4.39;72.66
79698;SHT31;69168;42.708;23.286;2023-11-21T02:22:41;4.50;72.17
79698;SHT31;69168;42.708;23.286;2023-11-21T02:25:12;4.52;72.18
79698;SHT31;69168;42.708;23.286;2023-11-21T02:27:39;4.54;72.05
79698;SHT31;69168;42.708;23.286;2023-11-21T02:30:05;4.40;72.40
79698;SHT31;69168;42.708;23.286;2023-11-21T02:32:32;4.49;72.33
79698;SHT31;69168;42.708;23.286;2023-11-21T02:35:04;4.50;72.24
79698;SHT31;69168;42.708;23.286;2023-11-21T02:37:33;4.46;72.16
79698;SHT31;69168;42.708;23.286;2023-11-21T02:39:58;4.53;72.33
79698;SHT31;69168;42.708;23.286;2023-11-21T02:42:24;4.50;72.31
79698;SHT31;69168;42.708;23.286;2023-11-21T02:44:50;4.44;72.39
79698;SHT31;69168;42.708;23.286;2023-11-21T02:47:18;4.44;72.36
79698;SHT31;69168;42.708;23.286;2023-11-21T02:49:44;4.37;72.67
79698;SHT31;69168;42.708;23.286;2023-11-21T02:52:09;4.42;72.27
79698;SHT31;69168;42.708;23.286;2023-11-21T02:54:35;4.36;72.38
79698;SHT31;69168;42.708;23.286;2023-11-21T02:57:02;4.36;72.42
79698;SHT31;69168;42.708;23.286;2023-11-21T02:59:27;4.37;72.30
79698;SHT31;69168;42.708;23.286;2023-11-21T03:01:53;4.33;72.43
79698;SHT31;69168;42.708;23.286;2023-11-21T03:04:18;4.39;72.37
79698;SHT31;69168;42.708;23.286;2023-11-21T03:06:47;4.33;72.87
79698;SHT31;69168;42.708;23.286;2023-11-21T03:09:13;4.29;72.76
79698;SHT31;69168;42.708;23.286;2023-11-21T03:11:41;4.35;72.88
79698;SHT31;69168;42.708;23.286;2023-11-21T03:14:07;4.28;73.23
79698;SHT31;69168;42.708;23.286;2023-11-21T03:16:33;4.32;73.34
79698;SHT31;69168;42.708;23.286;2023-11-21T03:19:01;4.36;73.25
79698;SHT31;69168;42.708;23.286;2023-11-21T03:21:27;4.36;72.97
79698;SHT31;69168;42.708;23.286;2023-11-21T03:23:52;4.39;72.67
79698;SHT31;69168;42.708;23.286;2023-11-21T03:26:21;4.43;72.04
79698;SHT31;69168;42.708;23.286;2023-11-21T03:28:47;4.39;72.02
79698;SHT31;69168;42.708;23.286;2023-11-21T03:31:12;4.39;72.24
79698;SHT31;69168;42.708;23.286;2023-11-21T03:33:43;4.42;72.29
79698;SHT31;69168;42.708;23.286;2023-11-21T03:36:08;4.43;72.43
79698;SHT31;69168;42.708;23.286;2023-11-21T03:38:34;4.43;72.09
79698;SHT31;69168;42.708;23.286;2023-11-21T03:40:59;4.43;72.00
79698;SHT31;69168;42.708;23.286;2023-11-21T03:43:25;4.42;71.47
79698;SHT31;69168;42.708;23.286;2023-11-21T03:45:50;4.37;71.79
79698;SHT31;69168;42.708;23.286;2023-11-21T03:48:19;4.35;71.80
79698;SHT31;69168;42.708;23.286;2023-11-21T03:50:45;4.30;72.52
79698;SHT31;69168;42.708;23.286;2023-11-21T03:53:12;4.32;72.52
79698;SHT31;69168;42.708;23.286;2023-11-21T03:55:38;4.35;72.64
79698;SHT31;69168;42.708;23.286;2023-11-21T03:58:03;4.29;72.62
79698;SHT31;69168;42.708;23.286;2023-11-21T04:00:29;4.39;72.86
79698;SHT31;69168;42.708;23.286;2023-11-21T04:02:54;4.29;72.99
79698;SHT31;69168;42.708;23.286;2023-11-21T04:05:20;4.40;73.12
79698;SHT31;69168;42.708;23.286;2023-11-21T04:07:55;4.42;73.29
79698;SHT31;69168;42.708;23.286;2023-11-21T04:10:20;4.36;73.39
79698;SHT31;69168;42.708;23.286;2023-11-21T04:12:47;4.39;73.50
79698;SHT31;69168;42.708;23.286;2023-11-21T04:15:15;4.33;73.19
79698;SHT31;69168;42.708;23.286;2023-11-21T04:17:42;4.32;73.66
79698;SHT31;69168;42.708;23.286;2023-11-21T04:20:10;4.29;74.00
79698;SHT31;69168;42.708;23.286;2023-11-21T04:22:39;4.18;73.66
79698;SHT31;69168;42.708;23.286;2023-11-21T04:25:08;3.99;74.12
79698;SHT31;69168;42.708;23.286;2023-11-21T04:27:34;3.94;73.85
79698;SHT31;69168;42.708;23.286;2023-11-21T04:30:03;3.84;74.26
79698;SHT31;69168;42.708;23.286;2023-11-21T04:32:28;3.73;74.47
79698;SHT31;69168;42.708;23.286;2023-11-21T04:34:54;3.67;74.60
79698;SHT31;69168;42.708;23.286;2023-11-21T04:37:23;3.71;74.69
79698;SHT31;69168;42.708;23.286;2023-11-21T04:39:49;3.70;74.66
79698;SHT31;69168;42.708;23.286;2023-11-21T04:42:15;3.78;74.40
79698;SHT31;69168;42.708;23.286;2023-11-21T04:44:40;3.66;74.64
79698;SHT31;69168;42.708;23.286;2023-11-21T04:47:06;3.63;74.72
79698;SHT31;69168;42.708;23.286;2023-11-21T04:49:36;3.53;74.79
79698;SHT31;69168;42.708;23.286;2023-11-21T04:52:01;3.73;74.57
79698;SHT31;69168;42.708;23.286;2023-11-21T04:54:33;3.78;74.39
79698;SHT31;69168;42.708;23.286;2023-11-21T04:56:58;3.71;74.54
79698;SHT31;69168;42.708;23.286;2023-11-21T04:59:26;3.53;75.09
79698;SHT31;69168;42.708;23.286;2023-11-21T05:01:53;3.69;74.68
79698;SHT31;69168;42.708;23.286;2023-11-21T05:04:26;3.67;74.73
79698;SHT31;69168;42.708;23.286;2023-11-21T05:06:55;3.70;74.83
79698;SHT31;69168;42.708;23.286;2023-11-21T05:09:20;3.69;74.98
79698;SHT31;69168;42.708;23.286;2023-11-21T05:11:47;3.73;75.37
79698;SHT31;69168;42.708;23.286;2023-11-21T05:14:18;3.87;74.83
79698;SHT31;69168;42.708;23.286;2023-11-21T05:16:47;3.95;74.66
79698;SHT31;69168;42.708;23.286;2023-11-21T05:19:12;4.01;74.69
79698;SHT31;69168;42.708;23.286;2023-11-21T05:21:38;3.90;74.86
79698;SHT31;69168;42.708;23.286;2023-11-21T05:24:04;4.01;74.80
79698;SHT31;69168;42.708;23.286;2023-11-21T05:26:30;3.99;74.74
79698;SHT31;69168;42.708;23.286;2023-11-21T05:28:56;3.95;74.89
79698;SHT31;69168;42.708;23.286;2023-11-21T05:31:33;4.09;74.76
79698;SHT31;69168;42.708;23.286;2023-11-21T05:34:19;4.13;74.52
79698;SHT31;69168;42.708;23.286;2023-11-21T05:36:45;3.99;74.72
79698;SHT31;69168;42.708;23.286;2023-11-21T05:39:11;3.99;74.84
79698;SHT31;69168;42.708;23.286;2023-11-21T05:41:39;4.01;74.89
79698;SHT31;69168;42.708;23.286;2023-11-21T05:44:05;3.98;74.82
79698;SHT31;69168;42.708;23.286;2023-11-21T05:46:30;3.97;75.03
79698;SHT31;69168;42.708;23.286;2023-11-21T05:48:56;4.06;74.99
79698;SHT31;69168;42.708;23.286;2023-11-21T05:51:22;4.05;74.80
79698;SHT31;69168;42.708;23.286;2023-11-21T05:53:47;4.12;74.67
79698;SHT31;69168;42.708;23.286;2023-11-21T05:56:19;4.12;74.76
79698;SHT31;69168;42.708;23.286;2023-11-21T05:58:44;4.09;74.68
79698;SHT31;69168;42.708;23.286;2023-11-21T06:01:10;4.08;74.68
79698;SHT31;69168;42.708;23.286;2023-11-21T06:03:38;4.01;75.10
79698;SHT31;69168;42.708;23.286;2023-11-21T06:06:07;3.88;75.31
79698;SHT31;69168;42.708;23.286;2023-11-21T06:08:32;3.88;75.50
79698;SHT31;69168;42.708;23.286;2023-11-21T06:10:58;3.90;75.45
79698;SHT31;69168;42.708;23.286;2023-11-21T06:13:23;3.82;75.77
79698;SHT31;69168;42.708;23.286;2023-11-21T06:15:53;4.02;75.41
79698;SHT31;69168;42.708;23.286;2023-11-21T06:18:18;4.08;75.29
79698;SHT31;69168;42.708;23.286;2023-11-21T06:20:45;4.18;75.26
79698;SHT31;69168;42.708;23.286;2023-11-21T06:23:11;3.98;75.40
79698;SHT31;69168;42.708;23.286;2023-11-21T06:25:37;3.84;75.72
79698;SHT31;69168;42.708;23.286;2023-11-21T06:28:06;3.67;76.08
79698;SHT31;69168;42.708;23.286;2023-11-21T06:30:34;3.63;75.95
79698;SHT31;69168;42.708;23.286;2023-11-21T06:33:00;3.50;76.33
79698;SHT31;69168;42.708;23.286;2023-11-21T06:35:26;3.75;75.80
79698;SHT31;69168;42.708;23.286;2023-11-21T06:37:55;3.91;75.31
79698;SHT31;69168;42.708;23.286;2023-11-21T06:40:20;3.91;74.92
79698;SHT31;69168;42.708;23.286;2023-11-21T06:42:46;3.82;75.33
79698;SHT31;69168;42.708;23.286;2023-11-21T06:45:12;3.74;75.57
79698;SHT31;69168;42.708;23.286;2023-11-21T06:47:38;3.75;75.66
79698;SHT31;69168;42.708;23.286;2023-11-21T06:50:05;3.71;75.90
79698;SHT31;69168;42.708;23.286;2023-11-21T06:52:32;3.77;75.77
79698;SHT31;69168;42.708;23.286;2023-11-21T06:54:57;3.84;75.46
79698;SHT31;69168;42.708;23.286;2023-11-21T06:57:23;3.87;75.69
79698;SHT31;69168;42.708;23.286;2023-11-21T06:59:49;3.88;75.71
79698;SHT31;69168;42.708;23.286;2023-11-21T07:02:16;3.87;75.71
79698;SHT31;69168;42.708;23.286;2023-11-21T07:04:46;4.08;75.43
79698;SHT31;69168;42.708;23.286;2023-11-21T07:07:12;4.20;75.19
79698;SHT31;69168;42.708;23.286;2023-11-21T07:09:38;4.23;75.18
79698;SHT31;69168;42.708;23.286;2023-11-21T07:12:04;4.40;74.63
79698;SHT31;69168;42.708;23.286;2023-11-21T07:14:33;4.49;74.48
79698;SHT31;69168;42.708;23.286;2023-11-21T07:16:59;4.56;74.44
79698;SHT31;69168;42.708;23.286;2023-11-21T07:19:24;4.53;74.73
79698;SHT31;69168;42.708;23.286;2023-11-21T07:21:50;4.61;74.48
79698;SHT31;69168;42.708;23.286;2023-11-21T07:24:16;4.70;74.42
79698;SHT31;69168;42.708;23.286;2023-11-21T07:26:42;4.80;74.43
79698;SHT31;69168;42.708;23.286;2023-11-21T07:29:08;4.80;74.32
79698;SHT31;69168;42.708;23.286;2023-11-21T07:31:34;4.89;73.77
79698;SHT31;69168;42.708;23.286;2023-11-21T07:34:00;5.01;73.72
79698;SHT31;69168;42.708;23.286;2023-11-21T07:36:26;4.87;74.02
79698;SHT31;69168;42.708;23.286;2023-11-21T07:38:51;4.91;74.13
79698;SHT31;69168;42.708;23.286;2023-11-21T07:41:18;4.95;73.97
79698;SHT31;69168;42.708;23.286;2023-11-21T07:43:46;4.96;74.23
79698;SHT31;69168;42.708;23.286;2023-11-21T07:46:12;4.92;74.41
79698;SHT31;69168;42.708;23.286;2023-11-21T07:48:39;4.92;74.20
79698;SHT31;69168;42.708;23.286;2023-11-21T07:51:05;5.04;74.12
79698;SHT31;69168;42.708;23.286;2023-11-21T07:53:30;5.08;74.13
79698;SHT31;69168;42.708;23.286;2023-11-21T07:56:03;5.19;74.00
79698;SHT31;69168;42.708;23.286;2023-11-21T07:58:29;5.22;74.06
79698;SHT31;69168;42.708;23.286;2023-11-21T08:00:56;5.23;73.92
79698;SHT31;69168;42.708;23.286;2023-11-21T08:03:21;5.26;73.71
79698;SHT31;69168;42.708;23.286;2023-11-21T08:05:47;5.22;73.72
79698;SHT31;69168;42.708;23.286;2023-11-21T08:08:12;5.33;73.48
79698;SHT31;69168;42.708;23.286;2023-11-21T08:10:38;5.42;73.31
79698;SHT31;69168;42.708;23.286;2023-11-21T08:13:07;5.44;73.21
79698;SHT31;69168;42.708;23.286;2023-11-21T08:15:34;5.48;72.92
79698;SHT31;69168;42.708;23.286;2023-11-21T08:18:02;5.39;73.57
79698;SHT31;69168;42.708;23.286;2023-11-21T08:20:27;5.46;73.53
79698;SHT31;69168;42.708;23.286;2023-11-21T08:22:53;5.75;73.16
79698;SHT31;69168;42.708;23.286;2023-11-21T08:25:22;5.87;72.28
79698;SHT31;69168;42.708;23.286;2023-11-21T08:27:47;5.90;72.37
79698;SHT31;69168;42.708;23.286;2023-11-21T08:30:13;6.11;71.52
79698;SHT31;69168;42.708;23.286;2023-11-21T08:32:42;6.19;71.64
79698;SHT31;69168;42.708;23.286;2023-11-21T08:35:08;6.36;71.07
79698;SHT31;69168;42.708;23.286;2023-11-21T08:37:33;6.33;71.22
79698;SHT31;69168;42.708;23.286;2023-11-21T08:40:03;6.51;71.15
79698;SHT31;69168;42.708;23.286;2023-11-21T08:42:29;6.53;71.36
79698;SHT31;69168;42.708;23.286;2023-11-21T08:44:56;6.64;71.69
79698;SHT31;69168;42.708;23.286;2023-11-21T08:47:23;6.74;71.64
79698;SHT31;69168;42.708;23.286;2023-11-21T08:49:50;6.78;71.17
79698;SHT31;69168;42.708;23.286;2023-11-21T08:52:21;6.95;70.54
79698;SHT31;69168;42.708;23.286;2023-11-21T08:54:51;6.98;70.16
79698;SHT31;69168;42.708;23.286;2023-11-21T08:57:25;7.12;69.67
79698;SHT31;69168;42.708;23.286;2023-11-21T08:59:50;7.19;70.05
79698;SHT31;69168;42.708;23.286;2023-11-21T09:02:25;7.23;70.04
79698;SHT31;69168;42.708;23.286;2023-11-21T09:04:51;7.24;69.30
79698;SHT31;69168;42.708;23.286;2023-11-21T09:07:20;7.29;69.81
79698;SHT31;69168;42.708;23.286;2023-11-21T09:09:49;7.29;69.81
79698;SHT31;69168;42.708;23.286;2023-11-21T09:12:16;7.23;69.46
79698;SHT31;69168;42.708;23.286;2023-11-21T09:14:43;7.30;69.38
79698;SHT31;69168;42.708;23.286;2023-11-21T09:17:11;7.40;69.53
79698;SHT31;69168;42.708;23.286;2023-11-21T09:19:37;7.56;68.68
79698;SHT31;69168;42.708;23.286;2023-11-21T09:22:03;7.59;68.93
79698;SHT31;69168;42.708;23.286;2023-11-21T09:24:34;7.61;69.03
79698;SHT31;69168;42.708;23.286;2023-11-21T09:26:59;7.68;68.32
79698;SHT31;69168;42.708;23.286;2023-11-21T09:29:28;7.77;68.26
79698;SHT31;69168;42.708;23.286;2023-11-21T09:31:57;7.92;68.47
79698;SHT31;69168;42.708;23.286;2023-11-21T09:34:24;8.02;67.79
79698;SHT31;69168;42.708;23.286;2023-11-21T09:36:51;8.19;67.32
79698;SHT31;69168;42.708;23.286;2023-11-21T09:39:16;8.39;67.02
79698;SHT31;69168;42.708;23.286;2023-11-21T09:41:46;8.17;67.09
79698;SHT31;69168;42.708;23.286;2023-11-21T09:44:23;8.36;66.19
79698;SHT31;69168;42.708;23.286;2023-11-21T09:46:51;8.33;66.81
79698;SHT31;69168;42.708;23.286;2023-11-21T09:49:23;8.32;66.00
79698;SHT31;69168;42.708;23.286;2023-11-21T09:51:55;8.21;66.01
79698;SHT31;69168;42.708;23.286;2023-11-21T09:54:21;8.26;65.99
79698;SHT31;69168;42.708;23.286;2023-11-21T09:56:48;8.44;65.55
79698;SHT31;69168;42.708;23.286;2023-11-21T09:59:15;8.60;65.62
79698;SHT31;69168;42.708;23.286;2023-11-21T10:01:42;8.77;66.10
79698;SHT31;69168;42.708;23.286;2023-11-21T10:04:10;9.11;64.55
79698;SHT31;69168;42.708;23.286;2023-11-21T10:06:41;9.12;65.38
79698;SHT31;69168;42.708;23.286;2023-11-21T10:09:10;9.25;65.33
79698;SHT31;69168;42.708;23.286;2023-11-21T10:11:40;9.35;64.67
79698;SHT31;69168;42.708;23.286;2023-11-21T10:14:08;9.32;64.11
79698;SHT31;69168;42.708;23.286;2023-11-21T10:16:36;9.35;64.17
79698;SHT31;69168;42.708;23.286;2023-11-21T10:19:04;9.40;64.36
79698;SHT31;69168;42.708;23.286;2023-11-21T10:21:34;9.39;64.11
79698;SHT31;69168;42.708;23.286;2023-11-21T10:24:00;9.42;63.57
79698;SHT31;69168;42.708;23.286;2023-11-21T10:26:27;9.43;63.72
79698;SHT31;69168;42.708;23.286;2023-11-21T10:29:00;9.57;64.52
79698;SHT31;69168;42.708;23.286;2023-11-21T10:31:33;9.55;63.42
79698;SHT31;69168;42.708;23.286;2023-11-21T10:34:14;9.35;62.79
79698;SHT31;69168;42.708;23.286;2023-11-21T10:36:40;9.39;63.49
79698;SHT31;69168;42.708;23.286;2023-11-21T10:39:06;9.48;63.38
79698;SHT31;69168;42.708;23.286;2023-11-21T10:41:32;9.60;62.60
79698;SHT31;69168;42.708;23.286;2023-11-21T10:43:57;9.47;63.05
79698;SHT31;69168;42.708;23.286;2023-11-21T10:46:23;9.48;62.77
79698;SHT31;69168;42.708;23.286;2023-11-21T10:48:54;9.71;63.28
79698;SHT31;69168;42.708;23.286;2023-11-21T10:51:21;9.60;63.37
79698;SHT31;69168;42.708;23.286;2023-11-21T10:53:47;9.53;63.72
79698;SHT31;69168;42.708;23.286;2023-11-21T10:56:18;9.55;64.09
79698;SHT31;69168;42.708;23.286;2023-11-21T10:59:03;9.53;63.78
79698;SHT31;69168;42.708;23.286;2023-11-21T11:01:29;9.47;63.39
79698;SHT31;69168;42.708;23.286;2023-11-21T11:03:56;9.47;62.93
79698;SHT31;69168;42.708;23.286;2023-11-21T11:06:24;9.39;63.45
79698;SHT31;69168;42.708;23.286;2023-11-21T11:08:52;9.35;63.16
79698;SHT31;69168;42.708;23.286;2023-11-21T11:11:17;9.36;63.00
79698;SHT31;69168;42.708;23.286;2023-11-21T11:13:46;9.39;63.74
79698;SHT31;69168;42.708;23.286;2023-11-21T11:16:11;9.47;63.77
79698;SHT31;69168;42.708;23.286;2023-11-21T11:18:37;9.47;63.05
79698;SHT31;69168;42.708;23.286;2023-11-21T11:21:26;9.53;63.65
79698;SHT31;69168;42.708;23.286;2023-11-21T11:24:22;9.55;63.73
79698;SHT31;69168;42.708;23.286;2023-11-21T11:33:07;9.55;62.45
79698;SHT31;69168;42.708;23.286;2023-11-21T11:35:56;9.58;62.72
79698;SHT31;69168;42.708;23.286;2023-11-21T11:38:27;9.55;62.66
79698;SHT31;69168;42.708;23.286;2023-11-21T11:41:02;9.51;62.76
79698;SHT31;69168;42.708;23.286;2023-11-21T11:43:31;9.51;62.66
79698;SHT31;69168;42.708;23.286;2023-11-21T11:46:09;9.53;62.67
79698;SHT31;69168;42.708;23.286;2023-11-21T11:48:38;9.48;62.34
79698;SHT31;69168;42.708;23.286;2023-11-21T11:51:10;9.35;62.87
79698;SHT31;69168;42.708;23.286;2023-11-21T11:53:47;9.30;62.80
79698;SHT31;69168;42.708;23.286;2023-11-21T11:56:30;9.26;63.22
79698;SHT31;69168;42.708;23.286;2023-11-21T11:59:00;9.32;63.83
79698;SHT31;69168;42.708;23.286;2023-11-21T12:01:28;9.27;64.41
79698;SHT31;69168;42.708;23.286;2023-11-21T12:06:51;9.27;65.26
79698;SHT31;69168;42.708;23.286;2023-11-21T12:09:21;9.05;66.71
79698;SHT31;69168;42.708;23.286;2023-11-21T12:11:49;9.02;66.84
79698;SHT31;69168;42.708;23.286;2023-11-21T12:14:15;9.09;67.48
79698;SHT31;69168;42.708;23.286;2023-11-21T12:16:42;9.01;67.94
79698;SHT31;69168;42.708;23.286;2023-11-21T12:19:13;8.99;69.74
79698;SHT31;69168;42.708;23.286;2023-11-21T12:21:40;8.98;69.61
79698;SHT31;69168;42.708;23.286;2023-11-21T12:24:14;8.72;70.98
79698;SHT31;69168;42.708;23.286;2023-11-21T12:26:40;8.75;71.21
79698;SHT31;69168;42.708;23.286;2023-11-21T12:29:05;8.87;71.46
79698;SHT31;69168;42.708;23.286;2023-11-21T12:31:33;8.88;71.54
79698;SHT31;69168;42.708;23.286;2023-11-21T12:33:59;8.85;71.59
79698;SHT31;69168;42.708;23.286;2023-11-21T12:36:25;8.56;72.01
79698;SHT31;69168;42.708;23.286;2023-11-21T12:38:51;8.61;71.87
79698;SHT31;69168;42.708;23.286;2023-11-21T12:41:16;8.65;72.31
79698;SHT31;69168;42.708;23.286;2023-11-21T12:43:42;8.65;71.77
79698;SHT31;69168;42.708;23.286;2023-11-21T12:46:10;8.54;71.61
79698;SHT31;69168;42.708;23.286;2023-11-21T12:48:39;8.60;71.41
79698;SHT31;69168;42.708;23.286;2023-11-21T12:51:07;8.63;71.00
79698;SHT31;69168;42.708;23.286;2023-11-21T12:53:33;8.68;71.41
79698;SHT31;69168;42.708;23.286;2023-11-21T12:56:13;8.67;71.52
79698;SHT31;69168;42.708;23.286;2023-11-21T12:58:39;8.70;71.78
79698;SHT31;69168;42.708;23.286;2023-11-21T13:01:07;8.68;71.89
79698;SHT31;69168;42.708;23.286;2023-11-21T13:03:40;8.61;72.23
79698;SHT31;69168;42.708;23.286;2023-11-21T13:06:10;8.60;71.94
79698;SHT31;69168;42.708;23.286;2023-11-21T13:08:37;8.61;71.52
79698;SHT31;69168;42.708;23.286;2023-11-21T13:13:55;8.60;71.78
79698;SHT31;69168;42.708;23.286;2023-11-21T13:16:21;8.74;71.77
79698;SHT31;69168;42.708;23.286;2023-11-21T13:18:49;8.64;71.94
79698;SHT31;69168;42.708;23.286;2023-11-21T13:21:14;8.68;72.07
79698;SHT31;69168;42.708;23.286;2023-11-21T13:23:41;8.84;71.23
79698;SHT31;69168;42.708;23.286;2023-11-21T13:26:07;8.74;71.53
79698;SHT31;69168;42.708;23.286;2023-11-21T13:28:37;8.63;71.92
79698;SHT31;69168;42.708;23.286;2023-11-21T13:31:04;8.72;71.43
79698;SHT31;69168;42.708;23.286;2023-11-21T13:33:50;8.71;71.59
79698;SHT31;69168;42.708;23.286;2023-11-21T13:36:25;8.70;71.64
79698;SHT31;69168;42.708;23.286;2023-11-21T13:38:51;8.65;71.74
79698;SHT31;69168;42.708;23.286;2023-11-21T13:41:20;8.59;71.83
79698;SHT31;69168;42.708;23.286;2023-11-21T13:43:47;8.89;71.22
79698;SHT31;69168;42.708;23.286;2023-11-21T13:46:22;8.80;71.63
79698;SHT31;69168;42.708;23.286;2023-11-21T13:48:49;8.82;71.73
79698;SHT31;69168;42.708;23.286;2023-11-21T13:51:22;8.82;71.54
79698;SHT31;69168;42.708;23.286;2023-11-21T13:53:55;8.67;71.88
79698;SHT31;69168;42.708;23.286;2023-11-21T13:56:21;8.59;71.80
79698;SHT31;69168;42.708;23.286;2023-11-21T13:58:51;8.68;71.16
79698;SHT31;69168;42.708;23.286;2023-11-21T14:01:17;8.59;71.77
79698;SHT31;69168;42.708;23.286;2023-11-21T14:04:02;8.54;71.78
79698;SHT31;69168;42.708;23.286;2023-11-21T14:06:40;8.54;72.11
79698;SHT31;69168;42.708;23.286;2023-11-21T14:09:16;8.56;71.89
79698;SHT31;69168;42.708;23.286;2023-11-21T14:11:51;8.57;71.97
79698;SHT31;69168;42.708;23.286;2023-11-21T14:14:18;8.56;71.65
79698;SHT31;69168;42.708;23.286;2023-11-21T14:16:44;8.71;71.88
79698;SHT31;69168;42.708;23.286;2023-11-21T14:19:10;8.70;71.46
79698;SHT31;69168;42.708;23.286;2023-11-21T14:21:41;8.61;71.59
79698;SHT31;69168;42.708;23.286;2023-11-21T14:24:08;8.61;71.43
79698;SHT31;69168;42.708;23.286;2023-11-21T14:26:35;8.72;71.42
79698;SHT31;69168;42.708;23.286;2023-11-21T14:29:00;8.78;71.54
79698;SHT31;69168;42.708;23.286;2023-11-21T14:31:26;8.68;72.45
79698;SHT31;69168;42.708;23.286;2023-11-21T14:33:55;8.60;72.70
79698;SHT31;69168;42.708;23.286;2023-11-21T14:36:24;8.59;73.00
79698;SHT31;69168;42.708;23.286;2023-11-21T14:38:49;8.57;73.18
79698;SHT31;69168;42.708;23.286;2023-11-21T14:41:15;8.61;73.42
79698;SHT31;69168;42.708;23.286;2023-11-21T14:43:40;8.71;73.46
79698;SHT31;69168;42.708;23.286;2023-11-21T14:46:08;8.61;73.47
79698;SHT31;69168;42.708;23.286;2023-11-21T14:48:35;8.77;73.04
79698;SHT31;69168;42.708;23.286;2023-11-21T14:51:21;8.67;73.33
79698;SHT31;69168;42.708;23.286;2023-11-21T14:54:02;8.61;73.60
79698;SHT31;69168;42.708;23.286;2023-11-21T14:56:35;8.56;74.24
79698;SHT31;69168;42.708;23.286;2023-11-21T14:59:03;8.53;73.54
79698;SHT31;69168;42.708;23.286;2023-11-21T15:01:38;8.49;74.01
79698;SHT31;69168;42.708;23.286;2023-11-21T15:04:21;8.51;74.00
79698;SHT31;69168;42.708;23.286;2023-11-21T15:07:04;8.56;74.10
79698;SHT31;69168;42.708;23.286;2023-11-21T15:09:33;8.54;74.13
79698;SHT31;69168;42.708;23.286;2023-11-21T15:12:09;8.57;73.84
79698;SHT31;69168;42.708;23.286;2023-11-21T15:17:06;8.54;73.96
79698;SHT31;69168;42.708;23.286;2023-11-21T15:19:32;8.54;74.13
79698;SHT31;69168;42.708;23.286;2023-11-21T15:21:59;8.54;74.19
79698;SHT31;69168;42.708;23.286;2023-11-21T15:24:25;8.57;74.38
79698;SHT31;69168;42.708;23.286;2023-11-21T15:26:50;8.53;74.43
79698;SHT31;69168;42.708;23.286;2023-11-21T15:29:16;8.53;74.57
79698;SHT31;69168;42.708;23.286;2023-11-21T15:31:42;8.53;74.77
79698;SHT31;69168;42.708;23.286;2023-11-21T15:34:16;8.53;74.82
79698;SHT31;69168;42.708;23.286;2023-11-21T15:36:42;8.53;74.74
79698;SHT31;69168;42.708;23.286;2023-11-21T15:39:08;8.54;74.70
79698;SHT31;69168;42.708;23.286;2023-11-21T15:41:38;8.59;74.62
79698;SHT31;69168;42.708;23.286;2023-11-21T15:44:05;8.57;74.44
79698;SHT31;69168;42.708;23.286;2023-11-21T15:46:34;8.54;74.59
79698;SHT31;69168;42.708;23.286;2023-11-21T15:49:01;8.56;74.91